sensor_id;sensor_type;location;lat;lon;timestamp;temperature;humidity
15241;DHT22;7723;52.170;9.978;2023-12-04T00:01:48;-1.50;99.90
15241;DHT22;7723;52.170;9.978;2023-12-04T00:04:15;-1.50;99.90
15241;DHT22;7723;52.170;9.978;2023-12-04T00:06:43;-1.40;99.90
15241;DHT22;7723;52.170;9.978;2023-12-04T00:09:10;-1.40;99.90
15241;DHT22;7723;52.170;9.978;2023-12-04T00:11:37;-1.50;99.90
15241;DHT22;7723;52.170;9.978;2023-12-04T00:14:04;-1.40;99.90
15241;DHT22;7723;52.170;9.978;2023-12-04T00:16:35;-1.50;99.90
15241;DHT22;7723;52.170;9.978;2023-12-04T00:19:02;-1.30;99.90
15241;DHT22;7723;52.170;9.978;2023-12-04T00:21:29;-1.60;99.90
15241;DHT22;7723;52.170;9.978;2023-12-04T00:23:56;-1.50;99.90
15241;DHT22;7723;52.170;9.978;2023-12-04T00:26:23;-1.50;99.90
15241;DHT22;7723;52.170;9.978;2023-12-04T00:28:50;-1.50;99.90
15241;DHT22;7723;52.170;9.978;2023-12-04T00:31:17;-1.50;99.90
15241;DHT22;7723;52.170;9.978;2023-12-04T00:33:45;-1.50;99.90
15241;DHT22;7723;52.170;9.978;2023-12-04T00:36:13;-1.40;99.90
15241;DHT22;7723;52.170;9.978;2023-12-04T00:38:40;-1.30;99.90
15241;DHT22;7723;52.170;9.978;2023-12-04T00:41:07;-1.50;99.90
15241;DHT22;7723;52.170;9.978;2023-12-04T00:43:34;-1.40;99.90
15241;DHT22;7723;52.170;9.978;2023-12-04T00:46:02;-1.50;99.90
15241;DHT22;7723;52.170;9.978;2023-12-04T00:48:29;-1.50;99.90
15241;DHT22;7723;52.170;9.978;2023-12-04T00:50:57;-1.50;99.90
15241;DHT22;7723;52.170;9.978;2023-12-04T00:53:24;-1.60;99.90
15241;DHT22;7723;52.170;9.978;2023-12-04T00:55:51;-1.60;99.90
15241;DHT22;7723;52.170;9.978;2023-12-04T00:58:18;-1.50;99.90
15241;DHT22;7723;52.170;9.978;2023-12-04T01:00:46;-1.60;99.90
15241;DHT22;7723;52.170;9.978;2023-12-04T01:03:14;-1.60;99.90
15241;DHT22;7723;52.170;9.978;2023-12-04T01:05:41;-1.40;99.90
15241;DHT22;7723;52.170;9.978;2023-12-04T01:08:10;-1.50;99.90
15241;DHT22;7723;52.170;9.978;2023-12-04T01:10:37;-1.20;99.90
15241;DHT22;7723;52.170;9.978;2023-12-04T01:13:05;-1.40;99.90
15241;DHT22;7723;52.170;9.978;2023-12-04T01:15:33;-1.30;99.90
15241;DHT22;7723;52.170;9.978;2023-12-04T01:18:00;-1.30;99.90
15241;DHT22;7723;52.170;9.978;2023-12-04T01:20:27;-1.30;99.90
15241;DHT22;7723;52.170;9.978;2023-12-04T01:22:55;-1.30;99.90
15241;DHT22;7723;52.170;9.978;2023-12-04T01:25:23;-1.30;99.90
15241;DHT22;7723;52.170;9.978;2023-12-04T01:27:50;-1.30;99.90
15241;DHT22;7723;52.170;9.978;2023-12-04T01:30:17;-1.30;99.90
15241;DHT22;7723;52.170;9.978;2023-12-04T01:32:44;-1.30;99.90
15241;DHT22;7723;52.170;9.978;2023-12-04T01:35:12;-1.30;99.90
15241;DHT22;7723;52.170;9.978;2023-12-04T01:37:39;-1.30;99.90
15241;DHT22;7723;52.170;9.978;2023-12-04T01:40:07;-1.30;99.90
15241;DHT22;7723;52.170;9.978;2023-12-04T01:42:36;-1.30;99.90
15241;DHT22;7723;52.170;9.978;2023-12-04T01:45:04;-1.30;99.90
15241;DHT22;7723;52.170;9.978;2023-12-04T01:47:33;-1.30;99.90
15241;DHT22;7723;52.170;9.978;2023-12-04T01:50:00;-1.30;99.90
15241;DHT22;7723;52.170;9.978;2023-12-04T01:52:27;-1.30;99.90
15241;DHT22;7723;52.170;9.978;2023-12-04T01:54:54;-1.30;99.90
15241;DHT22;7723;52.170;9.978;2023-12-04T01:57:22;-1.30;99.90
15241;DHT22;7723;52.170;9.978;2023-12-04T01:59:50;-1.40;99.90
15241;DHT22;7723;52.170;9.978;2023-12-04T02:02:17;-1.40;99.90
15241;DHT22;7723;52.170;9.978;2023-12-04T02:04:45;-1.20;99.90
15241;DHT22;7723;52.170;9.978;2023-12-04T02:07:12;-1.40;99.90
15241;DHT22;7723;52.170;9.978;2023-12-04T02:09:39;-1.50;99.90
15241;DHT22;7723;52.170;9.978;2023-12-04T02:12:06;-1.40;99.90
15241;DHT22;7723;52.170;9.978;2023-12-04T02:14:33;-1.40;99.90
15241;DHT22;7723;52.170;9.978;2023-12-04T02:17:03;-1.50;99.90
15241;DHT22;7723;52.170;9.978;2023-12-04T02:19:32;-1.50;99.90
15241;DHT22;7723;52.170;9.978;2023-12-04T02:21:59;-1.50;99.90
15241;DHT22;7723;52.170;9.978;2023-12-04T02:24:28;-1.40;99.90
15241;DHT22;7723;52.170;9.978;2023-12-04T02:26:59;-1.30;99.90
15241;DHT22;7723;52.170;9.978;2023-12-04T02:29:34;-1.40;99.90
15241;DHT22;7723;52.170;9.978;2023-12-04T02:32:04;-1.20;99.90
15241;DHT22;7723;52.170;9.978;2023-12-04T02:34:33;-1.40;99.90
15241;DHT22;7723;52.170;9.978;2023-12-04T02:37:01;-1.10;99.90
15241;DHT22;7723;52.170;9.978;2023-12-04T02:39:31;-1.30;99.90
15241;DHT22;7723;52.170;9.978;2023-12-04T02:41:58;-1.30;99.90
15241;DHT22;7723;52.170;9.978;2023-12-04T02:44:25;-1.20;99.90
15241;DHT22;7723;52.170;9.978;2023-12-04T02:46:52;-1.20;99.90
15241;DHT22;7723;52.170;9.978;2023-12-04T02:49:19;-1.20;99.90
15241;DHT22;7723;52.170;9.978;2023-12-04T02:51:46;-1.10;99.90
15241;DHT22;7723;52.170;9.978;2023-12-04T02:54:13;-1.10;99.90
15241;DHT22;7723;52.170;9.978;2023-12-04T02:56:42;-1.10;99.90
15241;DHT22;7723;52.170;9.978;2023-12-04T02:59:09;-1.10;99.90
15241;DHT22;7723;52.170;9.978;2023-12-04T03:01:36;-1.00;99.90
15241;DHT22;7723;52.170;9.978;2023-12-04T03:04:04;-1.00;99.90
15241;DHT22;7723;52.170;9.978;2023-12-04T03:06:33;-1.00;99.90
15241;DHT22;7723;52.170;9.978;2023-12-04T03:09:00;-1.00;99.90
15241;DHT22;7723;52.170;9.978;2023-12-04T03:11:28;-0.90;99.90
15241;DHT22;7723;52.170;9.978;2023-12-04T03:13:56;-1.00;99.90
15241;DHT22;7723;52.170;9.978;2023-12-04T03:16:23;-0.90;99.90
15241;DHT22;7723;52.170;9.978;2023-12-04T03:18:50;-1.00;99.90
15241;DHT22;7723;52.170;9.978;2023-12-04T03:21:17;-1.00;99.90
15241;DHT22;7723;52.170;9.978;2023-12-04T03:23:44;-0.90;99.90
15241;DHT22;7723;52.170;9.978;2023-12-04T03:26:11;-1.00;99.90
15241;DHT22;7723;52.170;9.978;2023-12-04T03:28:40;-0.90;99.90
15241;DHT22;7723;52.170;9.978;2023-12-04T03:31:08;-0.90;99.90
15241;DHT22;7723;52.170;9.978;2023-12-04T03:33:35;-0.90;99.90
15241;DHT22;7723;52.170;9.978;2023-12-04T03:36:03;-0.80;99.90
15241;DHT22;7723;52.170;9.978;2023-12-04T03:38:30;-0.80;99.90
15241;DHT22;7723;52.170;9.978;2023-12-04T03:40:58;-0.80;99.90
15241;DHT22;7723;52.170;9.978;2023-12-04T03:43:25;-0.80;99.90
15241;DHT22;7723;52.170;9.978;2023-12-04T03:45:52;-0.70;99.90
15241;DHT22;7723;52.170;9.978;2023-12-04T03:48:20;-0.70;99.90
15241;DHT22;7723;52.170;9.978;2023-12-04T03:50:47;-0.70;99.90
15241;DHT22;7723;52.170;9.978;2023-12-04T03:53:14;-0.70;99.90
15241;DHT22;7723;52.170;9.978;2023-12-04T03:55:42;-0.60;99.90
15241;DHT22;7723;52.170;9.978;2023-12-04T03:58:09;-0.70;99.90
15241;DHT22;7723;52.170;9.978;2023-12-04T04:00:36;-0.70;99.90
15241;DHT22;7723;52.170;9.978;2023-12-04T04:03:06;-0.70;99.90
15241;DHT22;7723;52.170;9.978;2023-12-04T04:05:35;-0.70;99.90
15241;DHT22;7723;52.170;9.978;2023-12-04T04:08:02;-0.60;99.90
15241;DHT22;7723;52.170;9.978;2023-12-04T04:10:30;-0.60;99.90
15241;DHT22;7723;52.170;9.978;2023-12-04T04:12:58;-0.60;99.90
15241;DHT22;7723;52.170;9.978;2023-12-04T04:15:25;-0.60;99.90
15241;DHT22;7723;52.170;9.978;2023-12-04T04:17:52;-0.60;99.90
15241;DHT22;7723;52.170;9.978;2023-12-04T04:20:20;-0.60;94.50
15241;DHT22;7723;52.170;9.978;2023-12-04T04:22:49;-0.60;99.90
15241;DHT22;7723;52.170;9.978;2023-12-04T04:25:16;-0.60;61.30
15241;DHT22;7723;52.170;9.978;2023-12-04T04:27:44;-0.60;24.60
15241;DHT22;7723;52.170;9.978;2023-12-04T04:30:12;-0.70;40.90
15241;DHT22;7723;52.170;9.978;2023-12-04T04:32:39;-0.60;7.60
15241;DHT22;7723;52.170;9.978;2023-12-04T04:35:07;-0.50;1.00
15241;DHT22;7723;52.170;9.978;2023-12-04T04:37:34;-0.50;1.00
15241;DHT22;7723;52.170;9.978;2023-12-04T04:40:03;-0.50;1.00
15241;DHT22;7723;52.170;9.978;2023-12-04T04:42:31;-0.50;1.00
15241;DHT22;7723;52.170;9.978;2023-12-04T04:44:58;-0.50;1.00
15241;DHT22;7723;52.170;9.978;2023-12-04T04:47:25;-0.50;1.00
15241;DHT22;7723;52.170;9.978;2023-12-04T04:49:52;-0.50;1.00
15241;DHT22;7723;52.170;9.978;2023-12-04T04:52:19;-0.50;1.00
15241;DHT22;7723;52.170;9.978;2023-12-04T04:54:46;-0.50;1.00
15241;DHT22;7723;52.170;9.978;2023-12-04T04:57:14;-0.40;1.00
15241;DHT22;7723;52.170;9.978;2023-12-04T04:59:42;-0.40;1.00
15241;DHT22;7723;52.170;9.978;2023-12-04T05:02:09;-0.40;99.90
15241;DHT22;7723;52.170;9.978;2023-12-04T05:04:36;-0.50;1.00
15241;DHT22;7723;52.170;9.978;2023-12-04T05:07:04;-0.50;1.00
15241;DHT22;7723;52.170;9.978;2023-12-04T05:09:31;-0.50;99.90
15241;DHT22;7723;52.170;9.978;2023-12-04T05:11:58;-0.40;99.90
15241;DHT22;7723;52.170;9.978;2023-12-04T05:14:27;-0.40;99.90
15241;DHT22;7723;52.170;9.978;2023-12-04T05:16:54;-0.50;99.90
15241;DHT22;7723;52.170;9.978;2023-12-04T05:19:21;-0.50;99.90
15241;DHT22;7723;52.170;9.978;2023-12-04T05:21:48;-0.50;87.80
15241;DHT22;7723;52.170;9.978;2023-12-04T05:24:15;-0.50;17.90
15241;DHT22;7723;52.170;9.978;2023-12-04T05:26:43;-0.50;1.00
15241;DHT22;7723;52.170;9.978;2023-12-04T05:29:10;-0.50;1.00
15241;DHT22;7723;52.170;9.978;2023-12-04T05:31:38;-0.40;26.20
15241;DHT22;7723;52.170;9.978;2023-12-04T05:34:06;-0.40;1.00
15241;DHT22;7723;52.170;9.978;2023-12-04T05:36:33;-0.40;1.00
15241;DHT22;7723;52.170;9.978;2023-12-04T05:39:00;-0.40;99.90
15241;DHT22;7723;52.170;9.978;2023-12-04T05:41:28;-0.40;1.00
15241;DHT22;7723;52.170;9.978;2023-12-04T05:43:56;-0.40;1.00
15241;DHT22;7723;52.170;9.978;2023-12-04T05:46:23;-0.40;99.90
15241;DHT22;7723;52.170;9.978;2023-12-04T05:48:51;-0.40;1.00
15241;DHT22;7723;52.170;9.978;2023-12-04T05:51:18;-0.40;1.00
15241;DHT22;7723;52.170;9.978;2023-12-04T05:53:45;-0.40;99.90
15241;DHT22;7723;52.170;9.978;2023-12-04T05:56:13;-0.40;1.00
15241;DHT22;7723;52.170;9.978;2023-12-04T05:58:40;-0.30;99.90
15241;DHT22;7723;52.170;9.978;2023-12-04T06:01:07;-0.40;99.90
15241;DHT22;7723;52.170;9.978;2023-12-04T06:03:34;-0.40;99.90
15241;DHT22;7723;52.170;9.978;2023-12-04T06:06:03;-0.40;1.00
15241;DHT22;7723;52.170;9.978;2023-12-04T06:08:31;-0.40;1.00
15241;DHT22;7723;52.170;9.978;2023-12-04T06:10:58;-0.30;1.00
15241;DHT22;7723;52.170;9.978;2023-12-04T06:13:25;-0.40;1.00
15241;DHT22;7723;52.170;9.978;2023-12-04T06:15:52;-0.40;1.00
15241;DHT22;7723;52.170;9.978;2023-12-04T06:18:19;-0.40;1.00
15241;DHT22;7723;52.170;9.978;2023-12-04T06:20:47;-0.30;99.90
15241;DHT22;7723;52.170;9.978;2023-12-04T06:23:16;-0.40;1.00
15241;DHT22;7723;52.170;9.978;2023-12-04T06:25:44;-0.30;99.90
15241;DHT22;7723;52.170;9.978;2023-12-04T06:28:11;-0.30;99.90
15241;DHT22;7723;52.170;9.978;2023-12-04T06:30:39;-0.30;99.90
15241;DHT22;7723;52.170;9.978;2023-12-04T06:33:08;-0.30;99.90
15241;DHT22;7723;52.170;9.978;2023-12-04T06:35:35;-0.30;1.00
15241;DHT22;7723;52.170;9.978;2023-12-04T06:38:06;-0.30;1.00
15241;DHT22;7723;52.170;9.978;2023-12-04T06:40:35;-0.30;1.00
15241;DHT22;7723;52.170;9.978;2023-12-04T06:43:03;-0.40;1.00
15241;DHT22;7723;52.170;9.978;2023-12-04T06:45:30;-0.30;99.90
15241;DHT22;7723;52.170;9.978;2023-12-04T06:47:59;-0.40;1.00
15241;DHT22;7723;52.170;9.978;2023-12-04T06:50:26;-0.30;1.00
15241;DHT22;7723;52.170;9.978;2023-12-04T06:52:53;-0.40;1.00
15241;DHT22;7723;52.170;9.978;2023-12-04T06:55:20;-0.30;1.00
15241;DHT22;7723;52.170;9.978;2023-12-04T06:57:49;-0.30;1.00
15241;DHT22;7723;52.170;9.978;2023-12-04T07:00:16;-0.30;1.00
15241;DHT22;7723;52.170;9.978;2023-12-04T07:02:43;-0.40;1.00
15241;DHT22;7723;52.170;9.978;2023-12-04T07:05:10;-0.40;99.90
15241;DHT22;7723;52.170;9.978;2023-12-04T07:07:38;-0.30;1.00
15241;DHT22;7723;52.170;9.978;2023-12-04T07:10:05;-0.30;99.90
15241;DHT22;7723;52.170;9.978;2023-12-04T07:12:33;-0.30;1.00
15241;DHT22;7723;52.170;9.978;2023-12-04T07:15:01;-0.30;99.90
15241;DHT22;7723;52.170;9.978;2023-12-04T07:17:28;-0.30;1.00
15241;DHT22;7723;52.170;9.978;2023-12-04T07:19:55;-0.30;99.90
15241;DHT22;7723;52.170;9.978;2023-12-04T07:22:22;-0.30;99.90
15241;DHT22;7723;52.170;9.978;2023-12-04T07:24:49;-0.30;99.90
15241;DHT22;7723;52.170;9.978;2023-12-04T07:27:16;-0.30;1.00
15241;DHT22;7723;52.170;9.978;2023-12-04T07:29:44;-0.40;99.90
15241;DHT22;7723;52.170;9.978;2023-12-04T07:32:12;-0.40;1.00
15241;DHT22;7723;52.170;9.978;2023-12-04T07:34:39;-0.30;1.00
15241;DHT22;7723;52.170;9.978;2023-12-04T07:37:06;-0.40;43.70
15241;DHT22;7723;52.170;9.978;2023-12-04T07:39:34;-0.30;1.00
15241;DHT22;7723;52.170;9.978;2023-12-04T07:42:01;-0.30;1.00
15241;DHT22;7723;52.170;9.978;2023-12-04T07:44:28;-0.30;1.00
15241;DHT22;7723;52.170;9.978;2023-12-04T07:46:55;-0.30;1.00
15241;DHT22;7723;52.170;9.978;2023-12-04T07:49:24;-0.30;99.90
15241;DHT22;7723;52.170;9.978;2023-12-04T07:51:51;-0.20;1.00
15241;DHT22;7723;52.170;9.978;2023-12-04T07:54:18;-0.30;1.00
15241;DHT22;7723;52.170;9.978;2023-12-04T07:56:45;-0.30;12.20
15241;DHT22;7723;52.170;9.978;2023-12-04T07:59:12;-0.30;1.00
15241;DHT22;7723;52.170;9.978;2023-12-04T08:01:39;-0.30;99.90
15241;DHT22;7723;52.170;9.978;2023-12-04T08:04:07;-0.20;1.00
15241;DHT22;7723;52.170;9.978;2023-12-04T08:06:35;-0.20;99.90
15241;DHT22;7723;52.170;9.978;2023-12-04T08:09:03;-0.30;99.90
15241;DHT22;7723;52.170;9.978;2023-12-04T08:11:31;-0.30;99.90
15241;DHT22;7723;52.170;9.978;2023-12-04T08:14:00;-0.20;1.00
15241;DHT22;7723;52.170;9.978;2023-12-04T08:16:27;-0.20;1.00
15241;DHT22;7723;52.170;9.978;2023-12-04T08:18:55;-0.20;1.00
15241;DHT22;7723;52.170;9.978;2023-12-04T08:21:23;-0.20;99.90
15241;DHT22;7723;52.170;9.978;2023-12-04T08:23:52;-0.20;99.90
15241;DHT22;7723;52.170;9.978;2023-12-04T08:26:23;-0.20;1.00
15241;DHT22;7723;52.170;9.978;2023-12-04T08:28:50;-0.30;1.00
15241;DHT22;7723;52.170;9.978;2023-12-04T08:31:17;-0.30;80.90
15241;DHT22;7723;52.170;9.978;2023-12-04T08:33:44;-0.30;99.90
15241;DHT22;7723;52.170;9.978;2023-12-04T08:36:12;-0.20;1.00
15241;DHT22;7723;52.170;9.978;2023-12-04T08:38:39;-0.20;1.00
15241;DHT22;7723;52.170;9.978;2023-12-04T08:41:07;-0.20;99.90
15241;DHT22;7723;52.170;9.978;2023-12-04T08:43:34;-0.10;99.90
15241;DHT22;7723;52.170;9.978;2023-12-04T08:46:02;-0.10;99.90
15241;DHT22;7723;52.170;9.978;2023-12-04T08:48:29;-0.10;32.00
15241;DHT22;7723;52.170;9.978;2023-12-04T08:50:56;0.00;1.00
15241;DHT22;7723;52.170;9.978;2023-12-04T08:53:24;0.00;1.00
15241;DHT22;7723;52.170;9.978;2023-12-04T08:55:51;0.00;1.00
15241;DHT22;7723;52.170;9.978;2023-12-04T08:58:20;0.00;99.90
15241;DHT22;7723;52.170;9.978;2023-12-04T09:00:47;0.00;1.00
15241;DHT22;7723;52.170;9.978;2023-12-04T09:03:14;0.00;1.00
15241;DHT22;7723;52.170;9.978;2023-12-04T09:05:42;0.10;1.00
15241;DHT22;7723;52.170;9.978;2023-12-04T09:08:09;0.20;99.90
15241;DHT22;7723;52.170;9.978;2023-12-04T09:10:36;0.20;99.90
15241;DHT22;7723;52.170;9.978;2023-12-04T09:13:03;0.30;1.00
15241;DHT22;7723;52.170;9.978;2023-12-04T09:15:32;0.30;1.00
15241;DHT22;7723;52.170;9.978;2023-12-04T09:17:59;0.20;99.90
15241;DHT22;7723;52.170;9.978;2023-12-04T09:20:26;0.30;1.00
15241;DHT22;7723;52.170;9.978;2023-12-04T09:22:53;0.40;99.90
15241;DHT22;7723;52.170;9.978;2023-12-04T09:25:20;0.40;99.90
15241;DHT22;7723;52.170;9.978;2023-12-04T09:27:48;0.40;99.90
15241;DHT22;7723;52.170;9.978;2023-12-04T09:30:15;0.40;1.00
15241;DHT22;7723;52.170;9.978;2023-12-04T09:32:43;0.50;1.00
15241;DHT22;7723;52.170;9.978;2023-12-04T09:35:10;0.60;99.90
15241;DHT22;7723;52.170;9.978;2023-12-04T09:37:37;0.60;1.00
15241;DHT22;7723;52.170;9.978;2023-12-04T09:40:06;0.70;1.00
15241;DHT22;7723;52.170;9.978;2023-12-04T09:42:34;0.60;99.90
15241;DHT22;7723;52.170;9.978;2023-12-04T09:45:02;0.50;1.00
15241;DHT22;7723;52.170;9.978;2023-12-04T09:47:29;0.60;1.00
15241;DHT22;7723;52.170;9.978;2023-12-04T09:49:58;0.60;99.90
15241;DHT22;7723;52.170;9.978;2023-12-04T09:52:27;0.50;1.00
15241;DHT22;7723;52.170;9.978;2023-12-04T09:54:54;0.60;1.00
15241;DHT22;7723;52.170;9.978;2023-12-04T09:57:23;0.60;99.90
15241;DHT22;7723;52.170;9.978;2023-12-04T09:59:51;0.60;99.90
15241;DHT22;7723;52.170;9.978;2023-12-04T10:02:19;0.70;99.90
15241;DHT22;7723;52.170;9.978;2023-12-04T10:04:47;0.80;99.90
15241;DHT22;7723;52.170;9.978;2023-12-04T10:07:15;0.90;1.00
15241;DHT22;7723;52.170;9.978;2023-12-04T10:09:43;1.00;1.00
15241;DHT22;7723;52.170;9.978;2023-12-04T10:12:10;1.00;1.00
15241;DHT22;7723;52.170;9.978;2023-12-04T10:14:37;1.00;1.00
15241;DHT22;7723;52.170;9.978;2023-12-04T10:17:14;1.00;1.00
15241;DHT22;7723;52.170;9.978;2023-12-04T10:19:41;1.20;1.00
15241;DHT22;7723;52.170;9.978;2023-12-04T10:22:08;1.10;1.00
15241;DHT22;7723;52.170;9.978;2023-12-04T10:24:38;1.10;1.00
15241;DHT22;7723;52.170;9.978;2023-12-04T10:27:07;1.20;1.00
15241;DHT22;7723;52.170;9.978;2023-12-04T10:29:43;1.30;1.00
15241;DHT22;7723;52.170;9.978;2023-12-04T10:32:11;1.30;1.00
15241;DHT22;7723;52.170;9.978;2023-12-04T10:34:38;1.10;1.00
15241;DHT22;7723;52.170;9.978;2023-12-04T10:37:10;1.20;1.00
15241;DHT22;7723;52.170;9.978;2023-12-04T10:39:46;1.20;1.00
15241;DHT22;7723;52.170;9.978;2023-12-04T10:42:23;1.10;1.00
15241;DHT22;7723;52.170;9.978;2023-12-04T10:44:52;1.20;1.00
15241;DHT22;7723;52.170;9.978;2023-12-04T10:47:19;1.10;1.00
15241;DHT22;7723;52.170;9.978;2023-12-04T10:49:49;1.20;1.00
15241;DHT22;7723;52.170;9.978;2023-12-04T10:52:17;1.30;1.00
15241;DHT22;7723;52.170;9.978;2023-12-04T10:54:47;1.30;1.00
15241;DHT22;7723;52.170;9.978;2023-12-04T10:57:19;1.30;1.00
15241;DHT22;7723;52.170;9.978;2023-12-04T10:59:48;1.10;99.90
15241;DHT22;7723;52.170;9.978;2023-12-04T11:02:20;1.10;99.90
15241;DHT22;7723;52.170;9.978;2023-12-04T11:04:48;1.00;99.90
15241;DHT22;7723;52.170;9.978;2023-12-04T11:07:18;1.10;99.90
15241;DHT22;7723;52.170;9.978;2023-12-04T11:09:48;1.10;99.90
15241;DHT22;7723;52.170;9.978;2023-12-04T11:12:18;1.10;99.90
15241;DHT22;7723;52.170;9.978;2023-12-04T11:14:53;1.20;99.90
15241;DHT22;7723;52.170;9.978;2023-12-04T11:17:23;1.20;99.90
15241;DHT22;7723;52.170;9.978;2023-12-04T11:19:55;1.20;99.90
15241;DHT22;7723;52.170;9.978;2023-12-04T11:22:25;1.50;1.00
15241;DHT22;7723;52.170;9.978;2023-12-04T11:24:54;1.30;93.40
15241;DHT22;7723;52.170;9.978;2023-12-04T11:27:23;1.20;68.10
15241;DHT22;7723;52.170;9.978;2023-12-04T11:29:51;1.30;90.40
15241;DHT22;7723;52.170;9.978;2023-12-04T11:32:18;1.30;1.00
15241;DHT22;7723;52.170;9.978;2023-12-04T11:34:49;1.20;1.00
15241;DHT22;7723;52.170;9.978;2023-12-04T11:37:17;1.20;95.50
15241;DHT22;7723;52.170;9.978;2023-12-04T11:39:46;1.40;1.00
15241;DHT22;7723;52.170;9.978;2023-12-04T11:42:18;1.40;1.00
15241;DHT22;7723;52.170;9.978;2023-12-04T11:44:48;1.50;21.90
15241;DHT22;7723;52.170;9.978;2023-12-04T11:47:15;1.80;1.00
15241;DHT22;7723;52.170;9.978;2023-12-04T11:49:42;1.80;1.00
15241;DHT22;7723;52.170;9.978;2023-12-04T11:52:10;1.80;1.00
15241;DHT22;7723;52.170;9.978;2023-12-04T11:54:57;1.80;1.00
15241;DHT22;7723;52.170;9.978;2023-12-04T11:57:26;1.50;99.90
15241;DHT22;7723;52.170;9.978;2023-12-04T12:00:12;1.50;1.00
15241;DHT22;7723;52.170;9.978;2023-12-04T12:02:41;1.70;1.00
15241;DHT22;7723;52.170;9.978;2023-12-04T12:05:08;1.90;1.00
15241;DHT22;7723;52.170;9.978;2023-12-04T12:07:35;1.90;99.90
15241;DHT22;7723;52.170;9.978;2023-12-04T12:10:03;1.80;99.90
15241;DHT22;7723;52.170;9.978;2023-12-04T12:12:32;1.60;99.90
15241;DHT22;7723;52.170;9.978;2023-12-04T12:14:59;1.70;99.90
15241;DHT22;7723;52.170;9.978;2023-12-04T12:17:26;1.70;99.90
15241;DHT22;7723;52.170;9.978;2023-12-04T12:19:54;1.60;1.00
15241;DHT22;7723;52.170;9.978;2023-12-04T12:22:23;1.60;99.90
15241;DHT22;7723;52.170;9.978;2023-12-04T12:24:50;1.50;33.70
15241;DHT22;7723;52.170;9.978;2023-12-04T12:27:17;1.50;99.90
15241;DHT22;7723;52.170;9.978;2023-12-04T12:29:46;1.60;1.00
15241;DHT22;7723;52.170;9.978;2023-12-04T12:32:13;1.60;99.90
15241;DHT22;7723;52.170;9.978;2023-12-04T12:34:40;1.50;99.90
15241;DHT22;7723;52.170;9.978;2023-12-04T12:37:08;1.60;99.90
15241;DHT22;7723;52.170;9.978;2023-12-04T12:39:35;1.50;99.90
15241;DHT22;7723;52.170;9.978;2023-12-04T12:42:03;1.40;99.90
15241;DHT22;7723;52.170;9.978;2023-12-04T12:44:37;1.30;99.90
15241;DHT22;7723;52.170;9.978;2023-12-04T12:47:07;1.50;99.90
15241;DHT22;7723;52.170;9.978;2023-12-04T12:49:34;1.60;1.00
15241;DHT22;7723;52.170;9.978;2023-12-04T12:52:04;1.80;1.00
15241;DHT22;7723;52.170;9.978;2023-12-04T12:54:32;1.70;1.00
15241;DHT22;7723;52.170;9.978;2023-12-04T12:57:01;1.70;99.90
15241;DHT22;7723;52.170;9.978;2023-12-04T12:59:28;1.80;99.90
15241;DHT22;7723;52.170;9.978;2023-12-04T13:01:58;1.70;99.90
15241;DHT22;7723;52.170;9.978;2023-12-04T13:04:34;1.80;1.00
15241;DHT22;7723;52.170;9.978;2023-12-04T13:07:01;1.70;99.90
15241;DHT22;7723;52.170;9.978;2023-12-04T13:09:28;1.60;99.90
15241;DHT22;7723;52.170;9.978;2023-12-04T13:11:55;1.60;99.90
15241;DHT22;7723;52.170;9.978;2023-12-04T13:14:22;1.60;99.90
15241;DHT22;7723;52.170;9.978;2023-12-04T13:16:50;1.60;99.90
15241;DHT22;7723;52.170;9.978;2023-12-04T13:19:17;1.60;99.90
15241;DHT22;7723;52.170;9.978;2023-12-04T13:21:45;1.70;84.70
15241;DHT22;7723;52.170;9.978;2023-12-04T13:24:13;1.70;99.90
15241;DHT22;7723;52.170;9.978;2023-12-04T13:26:40;1.80;15.50
15241;DHT22;7723;52.170;9.978;2023-12-04T13:29:07;1.80;1.00
15241;DHT22;7723;52.170;9.978;2023-12-04T13:31:34;1.70;1.00
15241;DHT22;7723;52.170;9.978;2023-12-04T13:34:01;1.70;1.00
15241;DHT22;7723;52.170;9.978;2023-12-04T13:36:32;1.80;15.10
15241;DHT22;7723;52.170;9.978;2023-12-04T13:39:00;1.70;1.00
15241;DHT22;7723;52.170;9.978;2023-12-04T13:41:28;1.80;1.00
15241;DHT22;7723;52.170;9.978;2023-12-04T13:44:13;1.70;1.00
15241;DHT22;7723;52.170;9.978;2023-12-04T13:46:41;1.80;1.00
15241;DHT22;7723;52.170;9.978;2023-12-04T13:49:08;1.80;1.00
15241;DHT22;7723;52.170;9.978;2023-12-04T13:51:35;1.70;1.00
15241;DHT22;7723;52.170;9.978;2023-12-04T13:54:08;1.70;1.00
15241;DHT22;7723;52.170;9.978;2023-12-04T13:56:47;1.70;1.00
15241;DHT22;7723;52.170;9.978;2023-12-04T13:59:19;1.70;99.90
15241;DHT22;7723;52.170;9.978;2023-12-04T14:01:48;1.60;1.00
15241;DHT22;7723;52.170;9.978;2023-12-04T14:04:17;1.60;1.00
15241;DHT22;7723;52.170;9.978;2023-12-04T14:06:44;1.60;1.00
15241;DHT22;7723;52.170;9.978;2023-12-04T14:09:13;1.60;1.00
15241;DHT22;7723;52.170;9.978;2023-12-04T14:11:42;1.60;1.00
15241;DHT22;7723;52.170;9.978;2023-12-04T14:14:11;1.60;1.00
15241;DHT22;7723;52.170;9.978;2023-12-04T14:16:39;1.60;9.00
15241;DHT22;7723;52.170;9.978;2023-12-04T14:19:07;1.60;1.00
15241;DHT22;7723;52.170;9.978;2023-12-04T14:21:35;1.70;93.40
15241;DHT22;7723;52.170;9.978;2023-12-04T14:24:02;1.60;1.00
15241;DHT22;7723;52.170;9.978;2023-12-04T14:26:31;1.40;1.00
15241;DHT22;7723;52.170;9.978;2023-12-04T14:28:58;1.70;1.00
15241;DHT22;7723;52.170;9.978;2023-12-04T14:31:26;1.60;1.00
15241;DHT22;7723;52.170;9.978;2023-12-04T14:33:54;1.60;99.90
15241;DHT22;7723;52.170;9.978;2023-12-04T14:36:21;1.60;99.90
15241;DHT22;7723;52.170;9.978;2023-12-04T14:38:48;1.60;1.00
15241;DHT22;7723;52.170;9.978;2023-12-04T14:41:15;1.50;99.90
15241;DHT22;7723;52.170;9.978;2023-12-04T14:43:43;1.50;99.90
15241;DHT22;7723;52.170;9.978;2023-12-04T14:46:11;1.50;99.90
15241;DHT22;7723;52.170;9.978;2023-12-04T14:48:38;1.50;99.90
15241;DHT22;7723;52.170;9.978;2023-12-04T14:51:07;1.50;99.90
15241;DHT22;7723;52.170;9.978;2023-12-04T14:53:37;1.40;99.90
15241;DHT22;7723;52.170;9.978;2023-12-04T14:56:12;1.40;1.00
15241;DHT22;7723;52.170;9.978;2023-12-04T14:58:52;1.40;1.00
15241;DHT22;7723;52.170;9.978;2023-12-04T15:01:38;1.40;1.00
15241;DHT22;7723;52.170;9.978;2023-12-04T15:04:22;1.40;1.00
15241;DHT22;7723;52.170;9.978;2023-12-04T15:07:06;1.30;1.00
15241;DHT22;7723;52.170;9.978;2023-12-04T15:09:56;1.30;1.00
15241;DHT22;7723;52.170;9.978;2023-12-04T15:13:03;1.30;99.90
15241;DHT22;7723;52.170;9.978;2023-12-04T15:15:49;1.40;99.90
15241;DHT22;7723;52.170;9.978;2023-12-04T15:18:43;1.40;1.00
15241;DHT22;7723;52.170;9.978;2023-12-04T15:21:26;1.30;1.00
15241;DHT22;7723;52.170;9.978;2023-12-04T15:23:54;1.30;1.00
15241;DHT22;7723;52.170;9.978;2023-12-04T15:26:20;1.30;1.00
15241;DHT22;7723;52.170;9.978;2023-12-04T15:28:47;1.30;1.00
15241;DHT22;7723;52.170;9.978;2023-12-04T15:31:15;1.30;1.00
15241;DHT22;7723;52.170;9.978;2023-12-04T15:33:43;1.40;1.00
15241;DHT22;7723;52.170;9.978;2023-12-04T15:36:09;1.30;1.00
15241;DHT22;7723;52.170;9.978;2023-12-04T15:38:36;1.40;1.00
15241;DHT22;7723;52.170;9.978;2023-12-04T15:41:03;1.30;1.00
15241;DHT22;7723;52.170;9.978;2023-12-04T15:43:30;1.40;1.00
15241;DHT22;7723;52.170;9.978;2023-12-04T15:45:56;1.30;1.00
15241;DHT22;7723;52.170;9.978;2023-12-04T15:48:24;1.30;1.00
15241;DHT22;7723;52.170;9.978;2023-12-04T15:50:50;1.30;1.00
15241;DHT22;7723;52.170;9.978;2023-12-04T15:53:17;1.30;1.00
15241;DHT22;7723;52.170;9.978;2023-12-04T15:55:44;1.20;99.90
15241;DHT22;7723;52.170;9.978;2023-12-04T15:58:12;1.10;1.00
15241;DHT22;7723;52.170;9.978;2023-12-04T16:00:38;1.10;1.00
15241;DHT22;7723;52.170;9.978;2023-12-04T16:03:05;0.90;99.90
15241;DHT22;7723;52.170;9.978;2023-12-04T16:05:33;0.80;1.00
15241;DHT22;7723;52.170;9.978;2023-12-04T16:08:00;0.80;99.90